Time;durP1;ratioP1;P1;durP2;ratioP2;P2;SDS_P1;SDS_P2;PMS_P1;PMS_P2;Temp;Humidity;BMP_temperature;BMP_pressure;BME280_temperature;BME280_humidity;BME280_pressure;Samples;Min_cycle;Max_cycle;Signal;HPM_P1;HPM_P2
2021/08/03 00:00:39;;;;;;;3.73;2.30;;;13.70;99.90;;;;;;4420504;32;20539;-63
2021/08/03 00:03:10;;;;;;;2.60;1.90;;;13.70;99.90;;;;;;4420355;32;20155;-62
2021/08/03 00:05:40;;;;;;;7.20;2.10;;;13.60;99.90;;;;;;4421149;32;20219;-62
2021/08/03 00:08:21;;;;;;;3.33;2.17;;;13.60;99.90;;;;;;4408625;32;20193;-62
2021/08/03 00:10:49;;;;;;;5.60;2.43;;;13.70;99.90;;;;;;4422037;32;20158;-62
2021/08/03 00:13:16;;;;;;;4.47;2.40;;;13.70;99.90;;;;;;4420551;32;20251;-60
2021/08/03 00:15:45;;;;;;;4.50;2.23;;;13.70;99.90;;;;;;4419884;32;20178;-61
2021/08/03 00:18:16;;;;;;;4.17;2.10;;;13.60;99.90;;;;;;4420232;32;20217;-60
2021/08/03 00:20:43;;;;;;;4.40;2.37;;;13.60;99.90;;;;;;4420788;32;20159;-60
2021/08/03 00:23:10;;;;;;;4.27;2.20;;;13.60;99.90;;;;;;4420386;32;20168;-60
2021/08/03 00:25:37;;;;;;;4.57;2.00;;;13.60;99.90;;;;;;4420540;32;20219;-61
2021/08/03 00:28:06;;;;;;;4.00;2.13;;;13.60;99.90;;;;;;4420894;32;20593;-62
2021/08/03 00:30:33;;;;;;;4.73;2.20;;;13.60;99.90;;;;;;4420514;32;20528;-61
2021/08/03 00:33:00;;;;;;;2.77;1.97;;;13.60;99.90;;;;;;4420168;32;20186;-62
2021/08/03 00:35:28;;;;;;;3.60;1.97;;;13.60;99.90;;;;;;4420626;32;20211;-62
2021/08/03 00:37:55;;;;;;;3.93;2.23;;;13.70;99.90;;;;;;4420396;32;20729;-61
2021/08/03 00:40:24;;;;;;;4.10;2.13;;;13.70;99.90;;;;;;4420411;32;20223;-62
2021/08/03 00:42:51;;;;;;;3.27;2.13;;;13.70;99.90;;;;;;4420162;32;20143;-62
2021/08/03 00:45:18;;;;;;;3.30;1.90;;;13.60;99.90;;;;;;4421662;32;20218;-61
2021/08/03 00:47:44;;;;;;;3.57;1.83;;;13.70;99.90;;;;;;4420639;32;20166;-62
2021/08/03 00:50:11;;;;;;;3.63;2.13;;;13.70;99.90;;;;;;4421940;32;20141;-62
2021/08/03 00:52:41;;;;;;;2.63;2.13;;;13.70;99.90;;;;;;4422003;32;20544;-61
2021/08/03 00:55:10;;;;;;;6.00;2.27;;;13.60;99.90;;;;;;4421110;32;20143;-61
2021/08/03 00:57:38;;;;;;;2.77;2.10;;;13.50;99.90;;;;;;4420742;32;20209;-63
2021/08/03 01:00:06;;;;;;;3.67;2.17;;;13.40;99.90;;;;;;4420014;32;20170;-62
2021/08/03 01:02:33;;;;;;;2.53;2.10;;;13.40;99.90;;;;;;4420501;32;20245;-61
2021/08/03 01:05:00;;;;;;;3.13;2.23;;;13.30;99.90;;;;;;4420569;32;20143;-62
2021/08/03 01:07:36;;;;;;;4.23;2.10;;;13.30;99.90;;;;;;4421571;32;20563;-60
2021/08/03 01:10:15;;;;;;;5.57;2.43;;;13.30;99.90;;;;;;4420114;32;20632;-63
2021/08/03 01:12:52;;;;;;;2.37;1.50;;;13.30;99.90;;;;;;4421307;32;20185;-60
2021/08/03 01:15:23;;;;;;;8.07;1.93;;;13.30;99.90;;;;;;4423028;32;20157;-61
2021/08/03 01:17:58;;;;;;;4.90;2.17;;;13.20;99.90;;;;;;4423393;32;20218;-60
2021/08/03 01:20:29;;;;;;;5.57;2.23;;;13.20;99.90;;;;;;4423364;32;20143;-62
2021/08/03 01:23:29;;;;;;;3.27;2.13;;;13.10;99.90;;;;;;4422866;32;20159;-61
2021/08/03 01:26:12;;;;;;;5.43;1.67;;;13.10;99.90;;;;;;4420507;32;20215;-62
2021/08/03 01:28:43;;;;;;;2.83;1.90;;;13.10;99.90;;;;;;4422252;32;20159;-62
2021/08/03 01:31:19;;;;;;;5.00;1.83;;;13.10;99.90;;;;;;4422817;32;20134;-62
2021/08/03 01:33:50;;;;;;;4.17;2.13;;;13.30;99.90;;;;;;4422532;32;20219;-60
2021/08/03 01:36:18;;;;;;;5.37;2.37;;;13.30;99.90;;;;;;4423476;32;20523;-60
2021/08/03 01:38:46;;;;;;;5.47;2.23;;;13.40;99.90;;;;;;4422543;32;20162;-60
2021/08/03 01:41:16;;;;;;;4.27;2.17;;;13.50;99.90;;;;;;4422533;32;20139;-62
2021/08/03 01:43:47;;;;;;;5.50;2.20;;;13.60;99.90;;;;;;4422901;32;20136;-59
2021/08/03 01:46:16;;;;;;;6.97;1.93;;;13.80;99.90;;;;;;4422702;32;20156;-61
2021/08/03 01:48:45;;;;;;;4.30;2.10;;;13.70;99.90;;;;;;4422444;32;20137;-63
2021/08/03 01:51:13;;;;;;;5.40;2.13;;;13.70;99.90;;;;;;4422431;32;20163;-61
2021/08/03 01:53:41;;;;;;;3.73;2.37;;;13.60;99.90;;;;;;4423522;32;20140;-62
2021/08/03 01:56:10;;;;;;;4.33;1.60;;;13.60;99.90;;;;;;4422229;32;20177;-63
2021/08/03 01:58:39;;;;;;;3.07;1.90;;;13.60;99.90;;;;;;4422314;32;20213;-62
2021/08/03 02:01:08;;;;;;;2.97;1.83;;;13.60;99.90;;;;;;4422688;32;20247;-60
2021/08/03 02:03:36;;;;;;;3.73;1.50;;;13.60;99.90;;;;;;4422341;32;20159;-62
2021/08/03 02:06:05;;;;;;;4.40;2.07;;;13.70;99.90;;;;;;4424024;32;20155;-61
2021/08/03 02:08:35;;;;;;;3.07;1.90;;;13.60;99.90;;;;;;4422288;32;20146;-62
2021/08/03 02:11:02;;;;;;;2.70;2.00;;;13.50;99.90;;;;;;4422107;32;20309;-61
2021/08/03 02:13:30;;;;;;;6.40;2.20;;;13.50;99.90;;;;;;4423881;32;20570;-61
2021/08/03 02:15:57;;;;;;;6.13;2.60;;;13.30;99.90;;;;;;4422109;32;20213;-62
2021/08/03 02:18:26;;;;;;;5.87;1.80;;;13.20;99.90;;;;;;4422892;32;20626;-61
2021/08/03 02:20:53;;;;;;;4.13;1.57;;;13.10;99.90;;;;;;4422547;32;20170;-62
2021/08/03 02:23:20;;;;;;;3.60;2.20;;;13.10;99.90;;;;;;4421735;32;20162;-62
2021/08/03 02:25:47;;;;;;;5.23;2.10;;;13.00;99.90;;;;;;4421318;32;20146;-61
2021/08/03 02:28:14;;;;;;;5.83;2.07;;;13.00;99.90;;;;;;4422797;32;20233;-62
2021/08/03 02:30:44;;;;;;;2.37;1.87;;;13.00;99.90;;;;;;4421842;32;20581;-62
2021/08/03 02:33:18;;;;;;;4.63;1.83;;;13.00;99.90;;;;;;4422640;32;20155;-62
2021/08/03 02:35:51;;;;;;;3.30;1.70;;;13.00;99.90;;;;;;4423131;32;20178;-61
2021/08/03 02:38:23;;;;;;;4.57;1.73;;;13.20;99.90;;;;;;4422126;32;20128;-61
2021/08/03 02:40:50;;;;;;;4.20;2.00;;;13.20;99.90;;;;;;4421788;32;20213;-61
2021/08/03 02:43:20;;;;;;;3.40;1.80;;;13.30;99.90;;;;;;4421415;32;20555;-61
2021/08/03 02:45:48;;;;;;;3.57;1.93;;;13.40;99.90;;;;;;4422321;32;20170;-61
2021/08/03 02:48:18;;;;;;;3.83;2.50;;;13.40;99.90;;;;;;4422256;32;20140;-62
2021/08/03 02:50:47;;;;;;;3.57;1.90;;;13.40;99.90;;;;;;4422592;32;20136;-62
2021/08/03 02:53:19;;;;;;;2.27;1.87;;;13.50;99.90;;;;;;4422651;32;20532;-62
2021/08/03 02:55:51;;;;;;;5.20;1.90;;;13.50;99.90;;;;;;4422035;32;20157;-61
2021/08/03 02:58:24;;;;;;;3.43;1.87;;;13.60;99.90;;;;;;4422396;32;20157;-62
2021/08/03 03:00:52;;;;;;;3.60;1.83;;;13.60;99.90;;;;;;4421204;32;20174;-62
2021/08/03 03:03:23;;;;;;;3.13;1.90;;;13.60;99.90;;;;;;4422124;32;20136;-62
2021/08/03 03:05:56;;;;;;;3.83;2.37;;;13.70;99.90;;;;;;4421481;32;20568;-62
2021/08/03 03:08:26;;;;;;;4.77;2.53;;;13.80;99.90;;;;;;4421339;32;20155;-62
2021/08/03 03:10:56;;;;;;;5.03;1.90;;;13.80;99.90;;;;;;4421419;32;20178;-62
2021/08/03 03:13:27;;;;;;;5.10;1.93;;;13.70;99.90;;;;;;4421032;32;20138;-61
2021/08/03 03:15:56;;;;;;;6.40;2.50;;;13.70;99.90;;;;;;4421692;32;20161;-62
2021/08/03 03:18:23;;;;;;;2.47;1.87;;;13.50;99.90;;;;;;4421246;32;20188;-62
2021/08/03 03:20:53;;;;;;;4.53;2.23;;;13.40;99.90;;;;;;4422524;32;20145;-62
2021/08/03 03:23:23;;;;;;;3.30;1.97;;;13.30;99.90;;;;;;4421066;32;20550;-63
2021/08/03 03:25:52;;;;;;;2.47;1.90;;;13.30;99.90;;;;;;4421565;32;20206;-61
2021/08/03 03:28:25;;;;;;;3.30;1.73;;;13.20;99.90;;;;;;4421889;32;20170;-62
2021/08/03 03:30:53;;;;;;;3.93;1.90;;;13.10;99.90;;;;;;4420829;32;20163;-61
2021/08/03 03:33:21;;;;;;;4.50;2.37;;;13.20;99.90;;;;;;4420855;32;20155;-63
2021/08/03 03:35:50;;;;;;;2.50;1.83;;;13.10;99.90;;;;;;4421170;32;20161;-61
2021/08/03 03:38:22;;;;;;;7.83;2.20;;;13.10;99.90;;;;;;4421024;32;20170;-62
2021/08/03 03:40:51;;;;;;;4.00;1.90;;;13.20;99.90;;;;;;4420754;32;20177;-61
2021/08/03 03:43:19;;;;;;;5.27;2.67;;;13.20;99.90;;;;;;4420734;32;20182;-61
2021/08/03 03:45:49;;;;;;;6.50;2.70;;;13.30;99.90;;;;;;4421856;32;20161;-63
2021/08/03 03:48:21;;;;;;;3.33;1.97;;;13.40;99.90;;;;;;4421177;32;20143;-61
2021/08/03 03:50:50;;;;;;;3.40;2.20;;;13.50;99.90;;;;;;4420652;32;20246;-62
2021/08/03 03:53:22;;;;;;;3.57;2.60;;;13.60;99.90;;;;;;4420611;32;20373;-62
2021/08/03 03:55:52;;;;;;;5.20;2.30;;;13.70;99.90;;;;;;4420629;32;20155;-61
2021/08/03 03:58:20;;;;;;;3.93;2.57;;;13.70;99.90;;;;;;4421980;32;20561;-62
2021/08/03 04:00:49;;;;;;;4.73;2.33;;;13.80;99.90;;;;;;4421072;32;20171;-61
2021/08/03 04:03:19;;;;;;;3.97;2.47;;;13.80;99.90;;;;;;4422314;32;20159;-62
2021/08/03 04:05:48;;;;;;;3.73;2.50;;;13.80;99.90;;;;;;4421165;32;20190;-62
2021/08/03 04:08:15;;;;;;;4.97;2.67;;;13.90;99.90;;;;;;4421247;32;20151;-62
2021/08/03 04:10:43;;;;;;;3.67;2.20;;;13.90;99.90;;;;;;4420567;32;20158;-61
2021/08/03 04:13:11;;;;;;;4.50;2.63;;;13.90;99.90;;;;;;4420747;32;20216;-61
2021/08/03 04:15:39;;;;;;;5.00;2.50;;;13.90;99.90;;;;;;4422068;32;20140;-61
2021/08/03 04:18:06;;;;;;;4.13;2.60;;;13.90;99.90;;;;;;4420659;32;20570;-61
2021/08/03 04:20:33;;;;;;;6.20;2.47;;;13.90;99.90;;;;;;4420600;32;20143;-61
2021/08/03 04:23:00;;;;;;;2.93;2.07;;;14.00;99.90;;;;;;4420325;32;20135;-61
2021/08/03 04:25:27;;;;;;;2.03;1.83;;;14.00;99.90;;;;;;4421391;32;20249;-61
2021/08/03 04:27:56;;;;;;;5.03;2.27;;;14.00;99.90;;;;;;4420249;32;20238;-61
2021/08/03 04:30:24;;;;;;;3.40;2.10;;;14.00;99.90;;;;;;4420290;32;20199;-61
2021/08/03 04:32:51;;;;;;;3.57;1.90;;;14.00;99.90;;;;;;4420250;32;20163;-61
2021/08/03 04:35:17;;;;;;;5.03;2.57;;;14.00;99.90;;;;;;4420327;32;20451;-62
2021/08/03 04:37:46;;;;;;;3.70;2.50;;;14.00;99.90;;;;;;4420409;32;20160;-61
2021/08/03 04:40:15;;;;;;;3.83;2.60;;;14.10;99.90;;;;;;4420374;32;20163;-61
2021/08/03 04:42:43;;;;;;;3.47;2.30;;;14.00;99.90;;;;;;4420274;32;20148;-61
2021/08/03 04:45:12;;;;;;;3.47;2.20;;;14.00;99.90;;;;;;4420218;32;20169;-62
2021/08/03 04:47:44;;;;;;;3.67;2.20;;;13.90;99.90;;;;;;4421206;32;20139;-61
2021/08/03 04:50:13;;;;;;;3.13;2.60;;;13.90;99.90;;;;;;4423391;32;20543;-61
2021/08/03 04:52:40;;;;;;;5.03;2.63;;;13.90;99.90;;;;;;4423465;32;20164;-61
2021/08/03 04:55:12;;;;;;;4.40;2.23;;;13.90;99.90;;;;;;4397173;32;20921;-61
2021/08/03 04:57:43;;;;;;;4.47;1.90;;;14.00;99.90;;;;;;4395147;32;20227;-61
2021/08/03 05:00:37;;;;;;;4.43;2.17;;;14.00;99.90;;;;;;4403453;32;20222;-60
2021/08/03 05:03:04;;;;;;;3.57;2.37;;;14.00;99.90;;;;;;4396961;32;20325;-62
2021/08/03 05:05:31;;;;;;;4.40;1.90;;;14.00;99.90;;;;;;4401546;32;20264;-62
2021/08/03 05:08:00;;;;;;;6.80;2.20;;;14.10;99.90;;;;;;4400629;32;20181;-60
2021/08/03 05:10:30;;;;;;;5.00;2.33;;;14.10;99.90;;;;;;4400871;32;20255;-61
2021/08/03 05:12:58;;;;;;;4.20;2.13;;;14.20;99.90;;;;;;4411800;32;20207;-61
2021/08/03 05:15:26;;;;;;;5.37;2.10;;;14.20;99.90;;;;;;4414231;32;20180;-61
2021/08/03 05:17:54;;;;;;;4.33;1.70;;;14.40;99.90;;;;;;4407704;32;20158;-61
2021/08/03 05:20:21;;;;;;;3.23;1.67;;;14.50;99.90;;;;;;4407954;32;20466;-61
2021/08/03 05:22:49;;;;;;;2.87;2.23;;;14.60;99.90;;;;;;4407543;32;20193;-61
2021/08/03 05:25:16;;;;;;;2.73;2.10;;;14.60;99.90;;;;;;4407801;32;20163;-61
2021/08/03 05:27:43;;;;;;;6.07;2.20;;;14.70;99.90;;;;;;4408653;32;20263;-61
2021/08/03 05:30:11;;;;;;;3.13;2.20;;;14.80;99.90;;;;;;4407287;32;20160;-62
2021/08/03 05:32:38;;;;;;;3.83;1.77;;;15.00;99.90;;;;;;4407580;32;20191;-62
2021/08/03 05:35:08;;;;;;;2.80;1.80;;;15.10;99.90;;;;;;4407563;32;20162;-61
2021/08/03 05:37:35;;;;;;;5.57;1.93;;;15.20;99.90;;;;;;4407405;32;20141;-62
2021/08/03 05:40:05;;;;;;;6.07;1.90;;;15.30;99.90;;;;;;4407207;32;20148;-62
2021/08/03 05:42:32;;;;;;;6.03;1.90;;;15.20;99.90;;;;;;4407612;32;20158;-62
2021/08/03 05:44:59;;;;;;;5.70;1.90;;;15.30;99.90;;;;;;4407433;32;20151;-62
2021/08/03 05:47:26;;;;;;;2.67;1.93;;;15.30;99.90;;;;;;4407605;32;20170;-62
2021/08/03 05:49:53;;;;;;;3.13;1.60;;;15.40;99.90;;;;;;4407281;32;20427;-61
2021/08/03 05:52:21;;;;;;;3.10;1.20;;;15.60;99.90;;;;;;4407164;32;20175;-61
2021/08/03 05:54:48;;;;;;;5.23;1.97;;;15.80;99.90;;;;;;4407279;32;20191;-61
2021/08/03 05:57:14;;;;;;;1.70;1.17;;;16.00;99.90;;;;;;4408155;32;20136;-62
2021/08/03 05:59:41;;;;;;;3.47;1.30;;;15.90;99.90;;;;;;4407724;32;20553;-62
2021/08/03 06:02:08;;;;;;;2.47;1.20;;;16.00;99.90;;;;;;4407098;32;20171;-62
2021/08/03 06:04:35;;;;;;;2.70;1.97;;;16.00;99.90;;;;;;4407178;32;20507;-61
2021/08/03 06:07:04;;;;;;;2.97;1.67;;;16.10;99.90;;;;;;4407435;32;20163;-62
2021/08/03 06:09:36;;;;;;;3.33;1.50;;;16.00;99.90;;;;;;4407111;32;20152;-62
2021/08/03 06:12:04;;;;;;;3.23;1.40;;;16.10;99.90;;;;;;4407140;32;20166;-61
2021/08/03 06:14:36;;;;;;;2.53;1.30;;;16.10;99.90;;;;;;4407135;32;20444;-62
2021/08/03 06:17:05;;;;;;;1.97;1.00;;;16.20;99.90;;;;;;4406886;32;20131;-61
2021/08/03 06:19:39;;;;;;;3.87;1.47;;;16.20;99.90;;;;;;4407017;32;20144;-62
2021/08/03 06:22:07;;;;;;;2.13;1.17;;;16.10;99.90;;;;;;4406794;32;20159;-60
2021/08/03 06:24:37;;;;;;;3.40;1.73;;;16.00;99.90;;;;;;4407163;32;20578;-61
2021/08/03 06:27:04;;;;;;;2.63;1.20;;;16.00;99.90;;;;;;4406821;32;20152;-61
2021/08/03 06:29:32;;;;;;;2.83;0.90;;;16.10;99.90;;;;;;4406596;32;20168;-61
2021/08/03 06:31:59;;;;;;;5.00;1.77;;;16.10;99.90;;;;;;4406538;32;20132;-61
2021/08/03 06:34:26;;;;;;;4.00;1.50;;;16.10;99.90;;;;;;4406606;32;20467;-61
2021/08/03 06:36:53;;;;;;;2.13;1.30;;;16.10;99.90;;;;;;4406784;32;20542;-61
2021/08/03 06:39:20;;;;;;;0.90;0.80;;;16.20;99.90;;;;;;4406969;32;20163;-61
2021/08/03 06:41:48;;;;;;;5.17;1.30;;;16.20;99.90;;;;;;4406961;32;20140;-61
2021/08/03 06:44:21;;;;;;;5.73;1.37;;;16.40;99.90;;;;;;4407178;32;20163;-61
2021/08/03 06:46:52;;;;;;;5.43;1.40;;;16.50;99.90;;;;;;4406451;32;20243;-61
2021/08/03 06:49:20;;;;;;;3.30;1.47;;;16.60;99.90;;;;;;4406193;32;20228;-61
2021/08/03 06:51:48;;;;;;;3.13;1.30;;;16.80;99.90;;;;;;4406860;32;20637;-62
2021/08/03 06:54:16;;;;;;;5.33;1.47;;;16.90;99.90;;;;;;4406431;32;20638;-61
2021/08/03 06:56:49;;;;;;;2.57;1.30;;;16.80;99.90;;;;;;4407183;32;20170;-61
2021/08/03 06:59:19;;;;;;;2.00;1.30;;;16.70;99.90;;;;;;4406265;32;20150;-61
2021/08/03 07:01:49;;;;;;;1.87;0.90;;;16.60;99.90;;;;;;4405968;32;20163;-61
2021/08/03 07:04:21;;;;;;;2.27;1.20;;;16.70;99.90;;;;;;4406815;32;20518;-62
2021/08/03 07:06:49;;;;;;;4.63;1.33;;;16.60;99.90;;;;;;4406159;32;20163;-62
2021/08/03 07:09:16;;;;;;;4.97;1.30;;;16.60;99.90;;;;;;4406385;32;20520;-61
2021/08/03 07:11:44;;;;;;;4.93;1.80;;;16.70;99.90;;;;;;4405754;32;20172;-60
2021/08/03 07:14:12;;;;;;;3.47;1.13;;;16.80;99.90;;;;;;4406308;32;20135;-61
2021/08/03 07:16:43;;;;;;;2.80;1.03;;;16.90;99.90;;;;;;4406016;32;20191;-61
2021/08/03 07:19:12;;;;;;;3.07;1.00;;;17.10;99.90;;;;;;4405966;32;20148;-61
2021/08/03 07:21:39;;;;;;;3.50;1.33;;;17.30;99.90;;;;;;4405824;32;20194;-61
2021/08/03 07:24:11;;;;;;;1.60;0.93;;;17.70;99.90;;;;;;4405705;32;20210;-62
2021/08/03 07:26:38;;;;;;;2.97;1.00;;;18.10;99.90;;;;;;4406017;32;20151;-62
2021/08/03 07:29:06;;;;;;;3.03;1.10;;;18.60;99.90;;;;;;4406402;32;20214;-61
2021/08/03 07:31:33;;;;;;;3.23;0.90;;;19.20;99.90;;;;;;4406077;32;20159;-60
2021/08/03 07:34:01;;;;;;;2.17;0.83;;;19.60;99.90;;;;;;4405902;32;20166;-61
2021/08/03 07:36:28;;;;;;;3.77;1.20;;;20.20;99.90;;;;;;4406385;32;20171;-62
2021/08/03 07:38:58;;;;;;;2.83;1.60;;;20.70;99.90;;;;;;4405835;32;20534;-62
2021/08/03 07:41:29;;;;;;;4.17;1.43;;;20.90;99.90;;;;;;4420275;32;20148;-62
2021/08/03 07:43:56;;;;;;;3.70;1.20;;;20.80;99.90;;;;;;4420969;32;20140;-61
2021/08/03 07:46:23;;;;;;;1.60;0.90;;;20.50;99.90;;;;;;4420931;32;20528;-60
2021/08/03 07:48:51;;;;;;;4.23;1.20;;;20.40;99.90;;;;;;4420987;32;20159;-62
2021/08/03 07:51:20;;;;;;;2.33;0.73;;;20.70;99.90;;;;;;4421103;32;20156;-61
2021/08/03 07:53:47;;;;;;;2.03;1.00;;;21.00;99.90;;;;;;4420762;32;20166;-61
2021/08/03 07:56:14;;;;;;;2.37;1.00;;;21.50;99.90;;;;;;4421155;32;20166;-62
2021/08/03 07:58:42;;;;;;;1.97;1.10;;;21.70;99.80;;;;;;4420635;32;20140;-63
2021/08/03 08:01:09;;;;;;;2.60;0.90;;;22.00;99.80;;;;;;4420813;32;20207;-60
2021/08/03 08:03:37;;;;;;;2.50;1.00;;;22.00;98.80;;;;;;4420699;32;20163;-62
2021/08/03 08:06:06;;;;;;;3.83;1.13;;;21.60;99.00;;;;;;4420476;32;20155;-61
2021/08/03 08:08:34;;;;;;;3.83;0.87;;;21.40;99.20;;;;;;4420584;32;20139;-62
2021/08/03 08:11:01;;;;;;;2.43;0.73;;;21.30;99.60;;;;;;4422049;32;20560;-61
2021/08/03 08:13:29;;;;;;;3.43;1.00;;;21.20;99.90;;;;;;4420616;32;20488;-62
2021/08/03 08:15:55;;;;;;;2.87;1.00;;;21.30;99.90;;;;;;4420463;32;20162;-61
2021/08/03 08:18:22;;;;;;;1.40;0.80;;;21.20;99.90;;;;;;4420523;32;20148;-60
2021/08/03 08:20:49;;;;;;;5.10;1.10;;;21.10;99.90;;;;;;4420410;32;20190;-60
2021/08/03 08:23:17;;;;;;;1.97;1.10;;;21.60;99.90;;;;;;4421868;32;20150;-62
2021/08/03 08:25:45;;;;;;;3.17;1.00;;;24.10;97.20;;;;;;4423769;32;20144;-64
2021/08/03 08:28:15;;;;;;;1.47;1.00;;;24.60;95.70;;;;;;4423909;32;20171;-63
2021/08/03 08:30:42;;;;;;;2.43;0.90;;;24.00;95.90;;;;;;4425118;32;20147;-63
2021/08/03 08:33:10;;;;;;;2.77;1.00;;;23.00;95.80;;;;;;4423441;32;20135;-63
2021/08/03 08:35:38;;;;;;;2.27;0.80;;;22.20;96.40;;;;;;4424641;32;20618;-62
2021/08/03 08:38:06;;;;;;;3.10;0.97;;;21.60;97.70;;;;;;4423459;32;20156;-61
2021/08/03 08:40:33;;;;;;;5.67;1.20;;;21.70;98.20;;;;;;4423501;32;20166;-61
2021/08/03 08:43:01;;;;;;;4.07;1.30;;;21.80;98.10;;;;;;4423970;32;20237;-60
2021/08/03 08:45:30;;;;;;;7.53;1.60;;;21.90;97.60;;;;;;4423272;32;20143;-62
2021/08/03 08:47:59;;;;;;;4.90;1.67;;;22.10;97.90;;;;;;4423289;32;20131;-60
2021/08/03 08:50:26;;;;;;;4.07;1.40;;;22.10;97.30;;;;;;4423478;32;20174;-61
2021/08/03 08:52:54;;;;;;;3.67;1.13;;;22.10;97.50;;;;;;4423058;32;20151;-61
2021/08/03 08:55:22;;;;;;;2.80;1.40;;;22.30;97.40;;;;;;4423306;32;20144;-61
2021/08/03 08:57:51;;;;;;;2.40;1.17;;;22.80;97.10;;;;;;4423149;32;20229;-60
2021/08/03 09:00:21;;;;;;;3.27;1.70;;;23.40;96.60;;;;;;4423108;32;20194;-61
2021/08/03 09:02:51;;;;;;;5.27;1.53;;;23.90;95.20;;;;;;4423086;32;20154;-62
2021/08/03 09:05:31;;;;;;;5.63;2.23;;;24.30;95.30;;;;;;4423176;32;20219;-60
2021/08/03 09:08:00;;;;;;;3.23;1.90;;;24.60;94.40;;;;;;4424462;32;20152;-62
2021/08/03 09:10:32;;;;;;;4.03;2.00;;;25.20;94.10;;;;;;4423471;32;20158;-62
2021/08/03 09:13:02;;;;;;;5.30;3.20;;;26.00;93.40;;;;;;4423719;32;20518;-62
2021/08/03 09:15:35;;;;;;;5.33;4.23;;;26.40;91.90;;;;;;4422708;32;20162;-61
2021/08/03 09:18:11;;;;;;;9.10;3.70;;;25.70;91.50;;;;;;4423171;32;20163;-63
2021/08/03 09:20:38;;;;;;;7.27;3.53;;;24.70;92.30;;;;;;4422753;32;20170;-61
2021/08/03 09:23:06;;;;;;;3.30;2.87;;;24.00;93.80;;;;;;4423204;32;20169;-64
2021/08/03 09:25:35;;;;;;;3.43;2.43;;;23.30;94.90;;;;;;4423164;32;20144;-62
2021/08/03 09:28:03;;;;;;;5.20;2.70;;;22.50;95.60;;;;;;4422756;32;20171;-61
2021/08/03 09:30:34;;;;;;;3.03;2.73;;;21.80;96.70;;;;;;4423232;32;20634;-62
2021/08/03 09:33:02;;;;;;;4.30;2.57;;;21.30;97.60;;;;;;4423854;32;20182;-62
2021/08/03 09:35:30;;;;;;;5.13;2.60;;;21.00;98.40;;;;;;4423201;32;20195;-61
2021/08/03 09:37:59;;;;;;;5.40;2.93;;;20.70;99.40;;;;;;4422672;32;20560;-60
2021/08/03 09:40:28;;;;;;;5.37;2.97;;;20.40;99.40;;;;;;4424276;32;20185;-62
2021/08/03 09:43:03;;;;;;;5.20;3.13;;;20.10;99.90;;;;;;4423087;32;20139;-61
2021/08/03 09:45:35;;;;;;;7.20;2.40;;;19.80;99.90;;;;;;4423280;32;20163;-61
2021/08/03 09:48:10;;;;;;;4.43;2.83;;;19.40;99.90;;;;;;4422437;32;20198;-62
2021/08/03 09:50:56;;;;;;;3.80;2.87;;;19.20;99.90;;;;;;4422416;32;20170;-60
2021/08/03 09:53:37;;;;;;;4.13;2.90;;;19.20;99.90;;;;;;4421983;32;20182;-62
2021/08/03 09:56:04;;;;;;;8.67;4.07;;;19.20;99.90;;;;;;4422131;32;20151;-61
2021/08/03 09:58:32;;;;;;;7.67;4.20;;;19.20;99.90;;;;;;4422176;32;20174;-61
2021/08/03 10:01:22;;;;;;;5.20;3.80;;;19.40;99.90;;;;;;4422148;32;20219;-62
2021/08/03 10:03:52;;;;;;;6.03;4.00;;;19.80;99.90;;;;;;4422066;32;20175;-62
2021/08/03 10:06:20;;;;;;;5.40;3.77;;;20.40;99.90;;;;;;4421938;32;20190;-61
2021/08/03 10:08:47;;;;;;;4.40;2.53;;;20.80;99.90;;;;;;4422237;32;20139;-63
2021/08/03 10:11:15;;;;;;;5.37;2.87;;;21.10;99.90;;;;;;4421932;32;20150;-63
2021/08/03 10:13:42;;;;;;;4.30;2.87;;;21.70;99.90;;;;;;4421899;32;20185;-61
2021/08/03 10:16:11;;;;;;;4.77;3.33;;;22.40;99.70;;;;;;4423419;32;20163;-62
2021/08/03 10:18:40;;;;;;;3.00;2.70;;;23.20;98.80;;;;;;4422738;32;20154;-62
2021/08/03 10:21:09;;;;;;;5.10;3.03;;;23.90;97.30;;;;;;4422062;32;20200;-62
2021/08/03 10:23:39;;;;;;;8.13;2.90;;;24.60;96.00;;;;;;4422062;32;20578;-63
2021/08/03 10:26:13;;;;;;;3.47;3.00;;;24.80;94.80;;;;;;4422445;32;20128;-62
2021/08/03 10:28:40;;;;;;;5.73;2.87;;;24.50;94.30;;;;;;4422200;32;20440;-63
2021/08/03 10:31:38;;;;;;;3.23;2.40;;;24.00;95.00;;;;;;4422660;32;20139;-63
2021/08/03 10:34:06;;;;;;;6.87;3.03;;;23.60;95.50;;;;;;4421804;32;20151;-62
2021/08/03 10:36:48;;;;;;;2.93;2.33;;;23.10;95.90;;;;;;4421758;32;20132;-61
2021/08/03 10:39:16;;;;;;;5.03;2.93;;;22.90;96.30;;;;;;4422334;32;20522;-61
2021/08/03 10:42:08;;;;;;;4.30;2.17;;;22.60;96.30;;;;;;4421737;32;20563;-61
2021/08/03 10:44:44;;;;;;;4.67;2.50;;;22.20;97.50;;;;;;4421525;32;20158;-62
2021/08/03 10:47:44;;;;;;;4.97;2.13;;;21.70;97.70;;;;;;4421372;32;20570;-62
2021/08/03 10:50:13;;;;;;;5.00;2.43;;;21.10;98.90;;;;;;4421804;32;20185;-63
2021/08/03 10:52:54;;;;;;;5.47;2.20;;;20.60;99.70;;;;;;4422227;32;20493;-61
2021/08/03 10:55:39;;;;;;;5.00;2.03;;;20.30;99.90;;;;;;4421318;32;20509;-62
2021/08/03 10:58:28;;;;;;;3.93;2.17;;;20.00;99.90;;;;;;4422519;32;20585;-63
2021/08/03 11:00:56;;;;;;;11.80;3.33;;;19.60;99.90;;;;;;4421587;32;20151;-62
2021/08/03 11:03:43;;;;;;;3.57;2.63;;;19.50;99.90;;;;;;4421129;32;20647;-62
2021/08/03 11:06:35;;;;;;;6.40;4.67;;;19.40;99.90;;;;;;4422821;32;20132;-62
2021/08/03 11:09:02;;;;;;;7.20;6.00;;;19.40;99.90;;;;;;4421761;32;20147;-62
2021/08/03 11:11:38;;;;;;;7.40;6.40;;;19.50;99.90;;;;;;4410248;32;20222;-61
2021/08/03 11:14:09;;;;;;;10.00;6.33;;;19.70;99.90;;;;;;4404228;32;20223;-61
2021/08/03 11:17:00;;;;;;;9.93;6.33;;;19.90;99.90;;;;;;4407557;32;20151;-61
2021/08/03 11:19:38;;;;;;;9.90;7.87;;;20.10;99.90;;;;;;4401339;32;20321;-61
2021/08/03 11:22:07;;;;;;;15.23;8.93;;;19.90;99.90;;;;;;4410897;32;20433;-61
2021/08/03 11:24:46;;;;;;;10.67;6.97;;;19.90;99.90;;;;;;4407926;32;20162;-61
2021/08/03 11:27:29;;;;;;;9.97;8.13;;;19.90;99.90;;;;;;4241334;32;5207040;-60
2021/08/03 11:29:57;;;;;;;11.03;8.73;;;19.70;99.90;;;;;;4404168;32;20619;-62
2021/08/03 11:32:31;;;;;;;13.77;7.93;;;19.50;99.90;;;;;;4406209;32;20178;-61
2021/08/03 11:34:59;;;;;;;10.27;7.70;;;19.20;99.90;;;;;;4410499;32;20658;-60
2021/08/03 11:37:27;;;;;;;10.10;8.43;;;19.20;99.90;;;;;;4421817;32;20158;-60
2021/08/03 11:39:56;;;;;;;10.40;8.10;;;19.00;99.90;;;;;;4421658;32;20575;-62
2021/08/03 11:42:35;;;;;;;12.80;7.87;;;18.80;99.90;;;;;;4422075;32;20472;-60
2021/08/03 11:45:05;;;;;;;12.53;8.97;;;18.70;99.90;;;;;;4422183;32;20207;-62
2021/08/03 11:47:40;;;;;;;13.97;10.60;;;18.60;99.90;;;;;;4420815;32;20225;-62
2021/08/03 11:50:09;;;;;;;14.37;11.33;;;18.30;99.90;;;;;;4420838;32;20144;-62
2021/08/03 11:52:36;;;;;;;20.17;13.20;;;18.00;99.90;;;;;;4421152;32;20573;-62
2021/08/03 11:55:04;;;;;;;14.73;12.43;;;17.80;99.90;;;;;;4413595;32;20207;-61
2021/08/03 11:57:38;;;;;;;17.53;13.60;;;17.50;99.90;;;;;;4410210;32;20155;-61
2021/08/03 12:00:17;;;;;;;15.50;11.60;;;17.20;99.90;;;;;;4407982;32;20212;-61
2021/08/03 12:02:46;;;;;;;15.57;11.90;;;17.10;99.90;;;;;;4408776;32;20164;-62
2021/08/03 12:05:17;;;;;;;15.70;12.00;;;17.00;99.90;;;;;;4405499;32;20296;-59
2021/08/03 12:07:53;;;;;;;18.27;12.47;;;17.00;99.90;;;;;;4405587;32;20178;-60
2021/08/03 12:10:24;;;;;;;17.47;12.00;;;16.90;99.90;;;;;;4405606;32;20152;-61
2021/08/03 12:12:51;;;;;;;15.30;11.40;;;16.90;99.90;;;;;;4404951;32;20503;-61
2021/08/03 12:15:19;;;;;;;16.03;12.17;;;16.80;99.90;;;;;;4405174;32;20163;-61
2021/08/03 12:17:48;;;;;;;17.40;13.23;;;16.80;99.90;;;;;;4405980;32;20487;-60
2021/08/03 12:20:27;;;;;;;16.40;11.87;;;16.90;99.90;;;;;;4405218;32;20160;-60
2021/08/03 12:22:55;;;;;;;17.63;13.27;;;16.90;99.90;;;;;;4405547;32;20152;-59
2021/08/03 12:25:24;;;;;;;17.57;11.90;;;17.00;99.90;;;;;;4406109;32;20166;-60
2021/08/03 12:27:52;;;;;;;20.13;11.83;;;17.10;99.90;;;;;;4405268;32;20159;-61
2021/08/03 12:30:39;;;;;;;18.37;12.47;;;17.20;99.90;;;;;;4405335;32;20200;-61
2021/08/03 12:33:07;;;;;;;17.83;13.03;;;17.30;99.90;;;;;;4405743;32;20159;-60
2021/08/03 12:35:39;;;;;;;18.67;12.63;;;17.70;99.90;;;;;;4405364;32;20484;-60
2021/08/03 12:38:16;;;;;;;17.13;11.57;;;17.90;99.90;;;;;;4405324;32;20148;-60
2021/08/03 12:40:43;;;;;;;15.43;10.33;;;18.20;99.90;;;;;;4405799;32;20231;-60
2021/08/03 12:43:10;;;;;;;12.77;10.70;;;18.50;99.90;;;;;;4405167;32;20203;-62
2021/08/03 12:45:40;;;;;;;16.27;10.80;;;18.70;99.90;;;;;;4405604;32;20445;-60
2021/08/03 12:48:09;;;;;;;17.37;10.87;;;19.00;99.90;;;;;;4404740;32;20152;-61
2021/08/03 12:50:49;;;;;;;13.07;10.47;;;19.20;99.90;;;;;;4405075;32;20155;-61
2021/08/03 12:53:27;;;;;;;13.17;10.00;;;19.30;99.90;;;;;;4405185;32;20175;-61
2021/08/03 12:55:56;;;;;;;13.40;9.80;;;19.10;99.90;;;;;;4405066;32;20156;-60
2021/08/03 12:58:34;;;;;;;11.97;9.17;;;19.10;99.90;;;;;;4404985;32;20179;-61
2021/08/03 13:01:09;;;;;;;13.23;9.60;;;19.20;99.90;;;;;;4405134;32;20147;-61